Terminal Aerodrome Forecast
Issued by NWS Wilmington, OH

Current Version | Previous Version | Text Only | Print | Product List | Glossary Off
Versions: 1 2 3 4 5 6 7 8 9 10 11 12 13 14 15 16 17 18 19 20 21 22 23 24

000
FTUS41 KILN 162300
TAFDAY
TAF
KDAY 162333Z 1700/1724 25015G23KT P6SM OVC012
      TEMPO 1701/1704 OVC008
     FM171100 27014KT P6SM OVC015
     FM171700 28012KT P6SM OVC022=

USA.gov is the U.S. government's official web portal to all federal, state and local government web resources and services.